Time;durP1;ratioP1;P1;durP2;ratioP2;P2;SDS_P1;SDS_P2;PMS_P1;PMS_P2;Temp;Humidity;BMP_temperature;BMP_pressure;BME280_temperature;BME280_humidity;BME280_pressure;Samples;Min_cycle;Max_cycle;Signal;HPM_P1;HPM_P2
2023/08/24 00:00:55;;;;;;;5.10;3.80;;;17.20;99.90;;;;;;4933615;29;20771;-82
2023/08/24 00:03:22;;;;;;;4.63;4.13;;;17.20;99.90;;;;;;4928785;29;20038;-82
2023/08/24 00:05:48;;;;;;;5.10;3.88;;;17.20;99.90;;;;;;4931514;29;20023;-80
2023/08/24 00:08:14;;;;;;;4.32;3.90;;;17.10;99.90;;;;;;4933330;29;20500;-80
2023/08/24 00:10:43;;;;;;;5.47;3.78;;;17.10;99.90;;;;;;4929311;29;20107;-81
2023/08/24 00:13:09;;;;;;;5.30;4.20;;;17.00;99.90;;;;;;4929431;29;20032;-80
2023/08/24 00:15:35;;;;;;;8.60;3.75;;;17.00;99.90;;;;;;4922097;28;20024;-79
2023/08/24 00:18:02;;;;;;;4.05;3.72;;;17.00;99.90;;;;;;4932729;29;20098;-81
2023/08/24 00:20:28;;;;;;;4.72;3.90;;;17.00;99.90;;;;;;4923271;29;20055;-82
2023/08/24 00:22:54;;;;;;;9.00;4.32;;;17.00;99.90;;;;;;4925863;29;20120;-82
2023/08/24 00:25:20;;;;;;;7.15;4.70;;;16.90;99.90;;;;;;4934411;28;20055;-82
2023/08/24 00:27:45;;;;;;;6.45;4.10;;;16.90;99.90;;;;;;4932086;29;20131;-81
2023/08/24 00:30:11;;;;;;;4.57;4.18;;;16.90;99.90;;;;;;4925854;29;20512;-80
2023/08/24 00:32:37;;;;;;;5.68;4.10;;;16.90;99.90;;;;;;4925274;29;20115;-81
2023/08/24 00:35:09;;;;;;;4.70;4.22;;;16.80;99.90;;;;;;4934318;29;20146;-81
2023/08/24 00:37:35;;;;;;;4.80;4.22;;;16.80;99.90;;;;;;4941764;29;20665;-82
2023/08/24 00:40:08;;;;;;;4.70;4.30;;;16.80;99.90;;;;;;4918083;29;20028;-79
2023/08/24 00:42:41;;;;;;;4.22;3.83;;;16.80;99.90;;;;;;4931594;29;20040;-81
2023/08/24 00:45:09;;;;;;;4.68;4.03;;;16.80;99.90;;;;;;4928807;29;20133;-80
2023/08/24 00:47:39;;;;;;;5.55;3.40;;;16.80;99.90;;;;;;4937975;29;20660;-82
2023/08/24 00:50:24;;;;;;;3.92;3.50;;;16.80;99.90;;;;;;4929956;29;20167;-81
2023/08/24 00:52:50;;;;;;;4.43;3.90;;;16.80;99.90;;;;;;4947262;28;20040;-80
2023/08/24 00:55:16;;;;;;;9.45;4.13;;;16.70;99.90;;;;;;4938521;28;20039;-81
2023/08/24 00:57:42;;;;;;;4.78;3.80;;;16.70;99.90;;;;;;4930715;29;20074;-81
2023/08/24 01:00:11;;;;;;;7.00;4.80;;;16.60;99.90;;;;;;4910989;29;20036;-80
2023/08/24 01:02:38;;;;;;;4.85;4.40;;;16.60;99.90;;;;;;4930239;29;20028;-79
2023/08/24 01:05:04;;;;;;;4.88;4.47;;;16.60;99.90;;;;;;4933586;28;20515;-81
2023/08/24 01:07:32;;;;;;;5.43;4.30;;;16.50;99.90;;;;;;4930512;29;20059;-80
2023/08/24 01:09:58;;;;;;;5.40;3.83;;;16.50;99.90;;;;;;4926341;28;20382;-81
2023/08/24 01:13:02;;;;;;;4.63;3.83;;;16.40;99.90;;;;;;4936434;29;20036;-81
2023/08/24 01:16:00;;;;;;;4.63;4.20;;;16.40;99.90;;;;;;4941443;28;20419;-80
2023/08/24 01:18:27;;;;;;;6.80;4.53;;;16.40;99.90;;;;;;4925705;29;20381;-80
2023/08/24 01:20:57;;;;;;;5.38;4.88;;;16.30;99.90;;;;;;4928374;29;20575;-81
2023/08/24 01:23:42;;;;;;;4.97;4.50;;;16.30;99.90;;;;;;4930718;29;20493;-80
2023/08/24 01:26:21;;;;;;;6.57;5.28;;;16.30;99.90;;;;;;4941177;28;20024;-79
2023/08/24 01:28:47;;;;;;;5.50;5.00;;;16.20;99.90;;;;;;4917593;29;20099;-80
2023/08/24 01:31:15;;;;;;;6.55;5.20;;;16.20;99.90;;;;;;4918208;29;20059;-82
2023/08/24 01:33:41;;;;;;;6.60;4.53;;;16.20;99.90;;;;;;4938872;28;20038;-80
2023/08/24 01:36:08;;;;;;;7.80;4.88;;;16.10;99.90;;;;;;4930402;29;20028;-80
2023/08/24 01:38:34;;;;;;;5.63;5.05;;;16.10;99.90;;;;;;4922136;28;20036;-80
2023/08/24 01:41:19;;;;;;;7.70;5.40;;;16.10;99.90;;;;;;4933369;29;20833;-82
2023/08/24 01:43:52;;;;;;;7.93;5.77;;;16.10;99.90;;;;;;4923660;29;20028;-83
2023/08/24 01:46:21;;;;;;;5.95;5.45;;;16.10;99.90;;;;;;4929071;29;20042;-82
2023/08/24 01:48:47;;;;;;;6.18;5.30;;;16.10;99.90;;;;;;4918427;29;20444;-79
2023/08/24 01:51:14;;;;;;;6.93;5.47;;;16.00;99.90;;;;;;4921147;29;20036;-82
2023/08/24 01:53:42;;;;;;;5.63;5.07;;;16.00;99.90;;;;;;4923349;29;20047;-81
2023/08/24 01:56:10;;;;;;;6.20;5.38;;;16.00;99.90;;;;;;4936028;28;20488;-83
2023/08/24 01:58:36;;;;;;;5.13;4.57;;;16.00;99.90;;;;;;4938810;29;20032;-80
2023/08/24 02:01:01;;;;;;;8.25;4.25;;;16.00;99.90;;;;;;4928389;29;20043;-82
2023/08/24 02:03:27;;;;;;;10.23;4.72;;;15.90;99.90;;;;;;4927811;29;20042;-82
2023/08/24 02:05:53;;;;;;;7.93;5.15;;;15.90;99.90;;;;;;4934879;29;20023;-80
2023/08/24 02:08:19;;;;;;;7.13;5.07;;;15.90;99.90;;;;;;4929812;29;20025;-80
2023/08/24 02:10:44;;;;;;;7.78;5.07;;;15.80;99.90;;;;;;4929591;29;20056;-81
2023/08/24 02:13:10;;;;;;;5.70;5.15;;;15.80;99.90;;;;;;4958404;28;20039;-82
2023/08/24 02:15:39;;;;;;;6.15;5.05;;;15.80;99.90;;;;;;4919150;29;20040;-82
2023/08/24 02:18:06;;;;;;;5.28;4.88;;;15.80;99.90;;;;;;4935443;29;20034;-81
2023/08/24 02:20:37;;;;;;;5.80;5.20;;;15.70;99.90;;;;;;4932168;29;20024;-81
2023/08/24 02:23:04;;;;;;;6.65;5.15;;;15.70;99.90;;;;;;4932750;29;20134;-81
2023/08/24 02:25:30;;;;;;;6.03;5.43;;;15.70;99.90;;;;;;4936041;28;20020;-80
2023/08/24 02:27:57;;;;;;;7.40;5.63;;;15.70;99.90;;;;;;4936106;29;20197;-80
2023/08/24 02:30:23;;;;;;;6.53;5.63;;;15.70;99.90;;;;;;4934777;29;20040;-83
2023/08/24 02:32:50;;;;;;;5.60;5.10;;;15.70;99.90;;;;;;4931057;29;20099;-81
2023/08/24 02:35:16;;;;;;;4.80;4.38;;;15.70;99.90;;;;;;4922198;29;20123;-80
2023/08/24 02:37:42;;;;;;;5.32;4.82;;;15.70;99.90;;;;;;4934244;29;20552;-79
2023/08/24 02:40:09;;;;;;;7.30;5.00;;;15.60;99.90;;;;;;4927801;29;20044;-80
2023/08/24 02:42:35;;;;;;;6.20;5.25;;;15.70;99.90;;;;;;4946423;29;20399;-80
2023/08/24 02:45:01;;;;;;;5.38;4.85;;;15.70;99.90;;;;;;4934481;29;20036;-80
2023/08/24 02:47:27;;;;;;;6.32;5.72;;;15.60;99.90;;;;;;4925155;29;20353;-80
2023/08/24 02:49:52;;;;;;;6.22;5.50;;;15.60;99.90;;;;;;4942736;29;20035;-79
2023/08/24 02:52:18;;;;;;;6.88;6.20;;;15.60;99.90;;;;;;4936681;29;20043;-80
2023/08/24 02:54:44;;;;;;;6.85;5.30;;;15.60;99.90;;;;;;4947792;28;20035;-79
2023/08/24 02:57:10;;;;;;;5.90;5.22;;;15.50;99.90;;;;;;4934453;29;20040;-80
2023/08/24 02:59:36;;;;;;;6.82;4.70;;;15.50;99.90;;;;;;4943740;28;20103;-79
2023/08/24 03:02:02;;;;;;;5.75;5.15;;;15.50;99.90;;;;;;4947385;28;20040;-78
2023/08/24 03:04:28;;;;;;;5.63;5.10;;;15.50;99.90;;;;;;4931362;29;20050;-79
2023/08/24 03:06:54;;;;;;;6.63;5.40;;;15.50;99.90;;;;;;4925130;29;20040;-79
2023/08/24 03:09:19;;;;;;;6.82;5.15;;;15.50;99.90;;;;;;4939820;29;20036;-79
2023/08/24 03:11:45;;;;;;;6.00;5.45;;;15.50;99.90;;;;;;4922519;29;20048;-80
2023/08/24 03:14:11;;;;;;;7.47;5.57;;;15.50;99.90;;;;;;4931578;29;20039;-78
2023/08/24 03:16:39;;;;;;;6.97;5.53;;;15.50;99.90;;;;;;4936812;29;20036;-79
2023/08/24 03:19:05;;;;;;;6.72;5.30;;;15.50;99.90;;;;;;4928520;29;20036;-78
2023/08/24 03:21:32;;;;;;;6.05;5.45;;;15.50;99.90;;;;;;4938289;29;20048;-80
2023/08/24 03:23:58;;;;;;;6.70;4.95;;;15.40;99.90;;;;;;4923671;29;20029;-80
2023/08/24 03:26:24;;;;;;;6.53;4.68;;;15.40;99.90;;;;;;4931321;29;20062;-79
2023/08/24 03:28:50;;;;;;;5.78;5.20;;;15.40;99.90;;;;;;4944618;28;20028;-79
2023/08/24 03:31:16;;;;;;;5.82;5.22;;;15.40;99.90;;;;;;4925706;29;20044;-80
2023/08/24 03:33:42;;;;;;;6.35;4.90;;;15.40;99.90;;;;;;4935687;29;20067;-80
2023/08/24 03:36:09;;;;;;;5.78;5.07;;;15.30;99.90;;;;;;4918564;29;20043;-79
2023/08/24 03:38:53;;;;;;;6.88;5.50;;;15.30;99.90;;;;;;4929738;29;20723;-79
2023/08/24 03:41:19;;;;;;;7.95;5.90;;;15.30;99.90;;;;;;4925480;29;20035;-80
2023/08/24 03:43:45;;;;;;;6.93;5.72;;;15.30;99.90;;;;;;4931344;29;20032;-79
2023/08/24 03:46:11;;;;;;;11.57;5.50;;;15.30;99.90;;;;;;4934123;29;20027;-79
2023/08/24 03:48:40;;;;;;;7.07;5.50;;;15.30;99.90;;;;;;4924333;29;20135;-81
2023/08/24 03:51:06;;;;;;;6.88;6.07;;;15.30;99.90;;;;;;4932449;29;20484;-78
2023/08/24 03:53:32;;;;;;;6.38;5.78;;;15.30;99.90;;;;;;4919457;29;20535;-81
2023/08/24 03:55:58;;;;;;;7.05;6.05;;;15.30;99.90;;;;;;4938527;29;20028;-80
2023/08/24 03:58:24;;;;;;;6.53;5.25;;;15.30;99.90;;;;;;4920668;29;20425;-80
2023/08/24 04:00:51;;;;;;;5.78;5.18;;;15.30;99.90;;;;;;4927448;29;20032;-80
2023/08/24 04:03:17;;;;;;;6.25;5.65;;;15.20;99.90;;;;;;4932469;29;20137;-81
2023/08/24 04:05:43;;;;;;;6.38;5.78;;;15.20;99.90;;;;;;4927675;28;20070;-80
2023/08/24 04:08:09;;;;;;;8.65;6.18;;;15.20;99.90;;;;;;4911984;29;20080;-80
2023/08/24 04:10:37;;;;;;;6.57;5.70;;;15.20;99.90;;;;;;4923607;29;20584;-80
2023/08/24 04:13:03;;;;;;;10.20;6.50;;;15.20;99.90;;;;;;4925966;28;20083;-80
2023/08/24 04:15:29;;;;;;;6.70;6.10;;;15.10;99.90;;;;;;4927247;29;20752;-79
2023/08/24 04:17:57;;;;;;;6.72;6.05;;;15.10;99.90;;;;;;4924840;29;20175;-80
2023/08/24 04:20:23;;;;;;;8.35;6.47;;;15.10;99.90;;;;;;4923606;29;20511;-81
2023/08/24 04:22:49;;;;;;;6.65;5.95;;;15.10;99.90;;;;;;4920268;29;20044;-81
2023/08/24 04:25:14;;;;;;;7.05;6.13;;;15.10;99.90;;;;;;4916536;29;20127;-81
2023/08/24 04:27:40;;;;;;;8.75;5.65;;;15.00;99.90;;;;;;4924420;29;20043;-81
2023/08/24 04:30:11;;;;;;;5.95;5.38;;;15.10;99.90;;;;;;4930640;29;20344;-80
2023/08/24 04:32:37;;;;;;;9.30;5.75;;;15.10;99.90;;;;;;4924701;29;20058;-81
2023/08/24 04:35:03;;;;;;;5.90;5.40;;;15.10;99.90;;;;;;4920590;29;20067;-82
2023/08/24 04:37:29;;;;;;;8.55;5.80;;;15.10;99.90;;;;;;4929227;29;20484;-80
2023/08/24 04:39:55;;;;;;;7.05;5.63;;;15.10;99.90;;;;;;4919956;29;20047;-80
2023/08/24 04:42:21;;;;;;;9.00;6.25;;;15.10;99.90;;;;;;4938809;29;20035;-81
2023/08/24 04:44:46;;;;;;;7.68;6.88;;;15.10;99.90;;;;;;4917651;29;20030;-80
2023/08/24 04:47:12;;;;;;;7.80;6.25;;;15.10;99.90;;;;;;4924345;29;20415;-80
2023/08/24 04:49:38;;;;;;;8.40;7.47;;;15.10;99.90;;;;;;4928532;29;20239;-81
2023/08/24 04:52:04;;;;;;;7.13;6.43;;;15.10;99.90;;;;;;4929551;29;20051;-82
2023/08/24 04:54:30;;;;;;;7.90;6.68;;;15.10;99.90;;;;;;4939295;28;20040;-82
2023/08/24 04:56:56;;;;;;;6.95;6.25;;;15.10;99.90;;;;;;4929805;29;20079;-80
2023/08/24 04:59:22;;;;;;;7.40;6.63;;;15.10;99.90;;;;;;4928368;29;20032;-80
2023/08/24 05:01:47;;;;;;;6.95;5.93;;;15.20;99.90;;;;;;4924585;29;20393;-80
2023/08/24 05:04:13;;;;;;;6.63;6.03;;;15.20;99.90;;;;;;4934610;28;20039;-81
2023/08/24 05:06:39;;;;;;;8.18;6.40;;;15.20;99.90;;;;;;4929472;29;20040;-82
2023/08/24 05:09:05;;;;;;;5.80;4.70;;;15.30;99.90;;;;;;4934867;29;20035;-81
2023/08/24 05:11:31;;;;;;;7.30;5.10;;;15.30;99.90;;;;;;4935715;29;20047;-82
2023/08/24 05:13:57;;;;;;;5.63;4.93;;;15.40;99.90;;;;;;4933794;29;20039;-82
2023/08/24 05:16:23;;;;;;;7.40;5.13;;;15.40;99.90;;;;;;4906490;29;20083;-82
2023/08/24 05:18:49;;;;;;;7.78;5.60;;;15.50;99.90;;;;;;4931621;29;20809;-82
2023/08/24 05:21:17;;;;;;;6.25;5.57;;;15.50;99.90;;;;;;4912876;29;20189;-82
2023/08/24 05:23:43;;;;;;;6.25;5.45;;;15.50;99.90;;;;;;4933256;29;20032;-81
2023/08/24 05:26:09;;;;;;;6.22;5.30;;;15.50;99.90;;;;;;4928669;29;20024;-81
2023/08/24 05:28:35;;;;;;;6.25;5.35;;;15.60;99.90;;;;;;4912967;29;20047;-79
2023/08/24 05:31:00;;;;;;;6.20;5.57;;;15.60;99.90;;;;;;4931676;29;20035;-80
2023/08/24 05:33:27;;;;;;;8.90;5.53;;;15.70;99.90;;;;;;4920100;29;20170;-82
2023/08/24 05:35:53;;;;;;;6.25;5.65;;;15.70;99.90;;;;;;4931250;29;20028;-79
2023/08/24 05:38:19;;;;;;;7.18;6.13;;;15.80;99.90;;;;;;4936591;29;20028;-80
2023/08/24 05:40:48;;;;;;;6.03;5.45;;;15.90;99.90;;;;;;4931029;29;20119;-81
2023/08/24 05:43:14;;;;;;;6.90;6.07;;;15.90;99.90;;;;;;4922610;29;20055;-82
2023/08/24 05:45:40;;;;;;;6.43;5.80;;;16.10;99.90;;;;;;4927288;29;20032;-81
2023/08/24 05:48:07;;;;;;;6.00;5.50;;;16.20;99.90;;;;;;4937417;29;20028;-81
2023/08/24 05:50:33;;;;;;;7.72;5.85;;;16.40;99.90;;;;;;4935684;29;20051;-80
2023/08/24 05:52:59;;;;;;;8.43;7.28;;;16.50;99.90;;;;;;4929934;29;20618;-81
2023/08/24 05:55:25;;;;;;;9.35;8.48;;;16.70;99.90;;;;;;4932644;29;20036;-79
2023/08/24 05:57:51;;;;;;;9.68;8.43;;;16.90;99.90;;;;;;4937610;29;20110;-79
2023/08/24 06:00:17;;;;;;;9.30;8.40;;;17.00;99.90;;;;;;4937491;29;20035;-82
2023/08/24 06:02:43;;;;;;;9.00;7.28;;;17.30;99.90;;;;;;4937594;29;20020;-81
2023/08/24 06:05:09;;;;;;;8.50;7.10;;;17.50;99.90;;;;;;4919765;29;20019;-82
2023/08/24 06:07:35;;;;;;;7.30;5.72;;;17.70;99.90;;;;;;4931384;29;20277;-78
2023/08/24 06:10:01;;;;;;;7.00;5.85;;;17.90;99.90;;;;;;4933887;29;20144;-81
2023/08/24 06:12:27;;;;;;;7.05;5.70;;;18.10;99.90;;;;;;4930717;29;20769;-81
2023/08/24 06:14:53;;;;;;;8.05;6.30;;;18.10;99.90;;;;;;4929546;29;20027;-82
2023/08/24 06:17:19;;;;;;;8.95;7.30;;;18.20;99.90;;;;;;4935690;29;20573;-82
2023/08/24 06:19:45;;;;;;;11.95;7.07;;;18.30;99.90;;;;;;4933857;29;20458;-80
2023/08/24 06:22:10;;;;;;;9.05;7.18;;;18.40;99.90;;;;;;4931659;29;20024;-81
2023/08/24 06:24:36;;;;;;;9.80;6.85;;;18.60;99.90;;;;;;4929772;29;20119;-80
2023/08/24 06:27:02;;;;;;;10.43;7.55;;;18.70;99.90;;;;;;4933267;29;20087;-81
2023/08/24 06:29:31;;;;;;;7.55;6.78;;;18.90;99.90;;;;;;4929418;29;20031;-81
2023/08/24 06:31:56;;;;;;;7.78;7.00;;;19.20;99.90;;;;;;4932043;29;20043;-80
2023/08/24 06:34:22;;;;;;;7.03;6.35;;;19.50;99.90;;;;;;4920673;28;20087;-81
2023/08/24 06:36:50;;;;;;;8.55;6.20;;;19.70;99.90;;;;;;4929935;29;20036;-81
2023/08/24 06:39:16;;;;;;;7.13;5.75;;;19.70;99.90;;;;;;4932285;29;20226;-80
2023/08/24 06:41:42;;;;;;;9.82;6.70;;;19.70;99.90;;;;;;4939568;29;20067;-81
2023/08/24 06:44:08;;;;;;;9.23;6.55;;;19.70;99.90;;;;;;4936282;29;20027;-80
2023/08/24 06:46:33;;;;;;;6.20;4.68;;;19.70;99.90;;;;;;4925653;28;20047;-80
2023/08/24 06:48:59;;;;;;;8.13;5.25;;;19.70;99.90;;;;;;4934441;29;20036;-80
2023/08/24 06:51:26;;;;;;;10.23;6.38;;;19.80;99.90;;;;;;4930668;29;20603;-80
2023/08/24 06:53:52;;;;;;;10.05;6.95;;;20.10;99.90;;;;;;4934189;29;20039;-79
2023/08/24 06:56:18;;;;;;;8.38;5.15;;;20.30;99.90;;;;;;4923716;29;20030;-81
2023/08/24 06:58:45;;;;;;;5.93;5.32;;;20.50;99.90;;;;;;4938083;29;20115;-79
2023/08/24 07:01:11;;;;;;;7.18;5.43;;;20.50;99.90;;;;;;4931073;29;20039;-81
2023/08/24 07:03:37;;;;;;;6.95;5.25;;;20.40;99.90;;;;;;4924589;29;20070;-81
2023/08/24 07:06:06;;;;;;;8.95;5.78;;;20.30;99.90;;;;;;4944020;29;20015;-80
2023/08/24 07:08:32;;;;;;;6.05;5.20;;;20.20;99.90;;;;;;4931954;29;20453;-80
2023/08/24 07:10:58;;;;;;;8.85;5.38;;;20.30;99.90;;;;;;4928198;29;20055;-81
2023/08/24 07:13:23;;;;;;;5.68;4.95;;;20.50;99.90;;;;;;4924282;29;20033;-83
2023/08/24 07:15:49;;;;;;;10.05;5.22;;;20.90;99.90;;;;;;4921446;29;20035;-82
2023/08/24 07:18:15;;;;;;;5.05;4.18;;;21.20;99.90;;;;;;4939523;29;20028;-80
2023/08/24 07:20:41;;;;;;;4.80;4.20;;;21.40;99.90;;;;;;4948514;29;20531;-81
2023/08/24 07:23:06;;;;;;;9.20;4.53;;;21.70;99.90;;;;;;4926634;29;20527;-80
2023/08/24 07:25:32;;;;;;;10.48;5.60;;;22.00;99.90;;;;;;4928052;28;20528;-80
2023/08/24 07:27:58;;;;;;;5.55;4.40;;;22.20;99.90;;;;;;4910219;29;20110;-81
2023/08/24 07:30:26;;;;;;;7.45;4.13;;;22.30;99.90;;;;;;4932129;29;20126;-79
2023/08/24 07:32:53;;;;;;;5.40;4.72;;;22.60;99.90;;;;;;4930065;29;20047;-79
2023/08/24 07:35:20;;;;;;;4.13;3.72;;;22.60;99.90;;;;;;4927761;29;20028;-79
2023/08/24 07:37:49;;;;;;;5.10;3.80;;;22.50;99.90;;;;;;4932060;29;20525;-79
2023/08/24 07:40:15;;;;;;;7.93;4.07;;;22.60;99.90;;;;;;4929848;29;20050;-78
2023/08/24 07:42:50;;;;;;;5.43;3.65;;;22.50;99.90;;;;;;4932704;29;20035;-81
2023/08/24 07:45:16;;;;;;;4.70;4.30;;;22.40;99.90;;;;;;4918552;29;20368;-79
2023/08/24 07:47:43;;;;;;;6.15;4.30;;;22.40;99.90;;;;;;4934299;29;20024;-78
2023/08/24 07:50:09;;;;;;;5.10;4.35;;;22.30;99.90;;;;;;4922236;29;20107;-78
2023/08/24 07:52:37;;;;;;;4.78;4.25;;;22.20;99.90;;;;;;4924066;29;20062;-79
2023/08/24 07:55:04;;;;;;;4.45;4.05;;;22.20;99.90;;;;;;4930258;28;20063;-78
2023/08/24 07:57:31;;;;;;;5.35;4.68;;;22.30;99.90;;;;;;4918268;29;20043;-79
2023/08/24 07:59:58;;;;;;;6.00;4.50;;;22.40;99.90;;;;;;4928006;29;20031;-78
2023/08/24 08:02:24;;;;;;;4.43;4.00;;;22.60;99.90;;;;;;4924528;29;20024;-79
2023/08/24 08:04:49;;;;;;;6.25;4.40;;;22.80;99.90;;;;;;4925038;29;20039;-79
2023/08/24 08:07:15;;;;;;;6.00;4.28;;;22.90;99.90;;;;;;4931184;29;20028;-79
2023/08/24 08:09:41;;;;;;;6.53;4.18;;;22.90;99.90;;;;;;4926887;29;20987;-80
2023/08/24 08:12:06;;;;;;;9.50;4.55;;;23.00;99.90;;;;;;4919429;29;20043;-78
2023/08/24 08:14:32;;;;;;;8.07;4.50;;;22.90;99.90;;;;;;4935568;28;20039;-79
2023/08/24 08:16:58;;;;;;;8.43;4.70;;;23.00;99.90;;;;;;4925484;29;20042;-81
2023/08/24 08:19:26;;;;;;;4.05;3.65;;;23.10;99.90;;;;;;4916259;29;20111;-78
2023/08/24 08:21:52;;;;;;;4.70;4.28;;;23.10;99.90;;;;;;4922037;29;20139;-78
2023/08/24 08:24:18;;;;;;;6.25;4.30;;;23.30;99.90;;;;;;4919614;29;20466;-80
2023/08/24 08:26:43;;;;;;;6.90;4.45;;;23.30;99.90;;;;;;4913603;29;20043;-80
2023/08/24 08:29:18;;;;;;;7.75;5.25;;;23.40;99.90;;;;;;4927042;29;20035;-79
2023/08/24 08:31:44;;;;;;;;;;;23.40;99.90;;;;;;4903469;29;20047;-79
2023/08/24 08:34:10;;;;;;;6.15;4.72;;;23.50;99.90;;;;;;4923217;29;19927;-78
2023/08/24 08:36:36;;;;;;;7.78;4.55;;;23.60;99.90;;;;;;4915032;29;20069;-80
2023/08/24 08:39:03;;;;;;;4.72;4.03;;;23.70;99.90;;;;;;4920702;29;20147;-80
2023/08/24 08:41:33;;;;;;;6.55;4.57;;;23.80;99.90;;;;;;4922641;29;20032;-82
2023/08/24 08:44:04;;;;;;;4.50;3.78;;;23.90;99.90;;;;;;4927259;29;20040;-81
2023/08/24 08:46:32;;;;;;;6.03;4.10;;;24.00;99.90;;;;;;4928581;29;20075;-80
2023/08/24 08:49:00;;;;;;;4.47;4.07;;;24.00;99.90;;;;;;4931364;29;20126;-79
2023/08/24 08:51:26;;;;;;;6.30;4.05;;;23.90;99.90;;;;;;4927657;29;20032;-80
2023/08/24 08:53:53;;;;;;;7.15;4.32;;;24.00;99.90;;;;;;4927448;29;20023;-80
2023/08/24 08:56:19;;;;;;;10.20;4.55;;;24.00;99.90;;;;;;4927691;29;20031;-82
2023/08/24 08:58:48;;;;;;;6.05;3.85;;;24.00;99.90;;;;;;4930171;29;20028;-82
2023/08/24 09:01:14;;;;;;;4.97;3.65;;;24.10;99.90;;;;;;4937334;29;20669;-82
2023/08/24 09:03:40;;;;;;;5.57;3.80;;;24.20;99.90;;;;;;4929422;29;20096;-80
2023/08/24 09:06:06;;;;;;;5.50;3.80;;;24.30;99.90;;;;;;4941609;28;20035;-82
2023/08/24 09:08:32;;;;;;;6.30;4.05;;;24.30;99.90;;;;;;4929069;29;20039;-81
2023/08/24 09:11:02;;;;;;;4.38;3.97;;;24.30;99.90;;;;;;4933310;29;20107;-80
2023/08/24 09:13:29;;;;;;;4.65;3.40;;;24.40;99.90;;;;;;4930469;29;20043;-80
2023/08/24 09:16:04;;;;;;;6.85;3.80;;;24.40;99.90;;;;;;4935244;29;20028;-81
2023/08/24 09:18:39;;;;;;;7.65;3.95;;;24.50;99.90;;;;;;4936503;29;20023;-79
2023/08/24 09:21:13;;;;;;;4.68;3.90;;;24.50;99.90;;;;;;4933518;29;20040;-81
2023/08/24 09:23:55;;;;;;;6.40;4.20;;;24.70;99.90;;;;;;4934859;29;20055;-82
2023/08/24 09:26:29;;;;;;;4.38;3.80;;;24.80;99.90;;;;;;4923091;29;20031;-82
2023/08/24 09:28:55;;;;;;;7.45;4.00;;;24.90;99.90;;;;;;4929020;29;20031;-81
2023/08/24 09:31:21;;;;;;;7.30;4.15;;;25.00;99.90;;;;;;4932654;29;20031;-81
2023/08/24 09:33:47;;;;;;;4.10;3.70;;;25.20;99.90;;;;;;4932544;29;20042;-80
2023/08/24 09:36:35;;;;;;;7.85;3.85;;;25.20;99.90;;;;;;4936202;29;20082;-79
2023/08/24 09:39:05;;;;;;;4.10;3.40;;;25.10;99.90;;;;;;4938594;29;20137;-80
2023/08/24 09:41:43;;;;;;;6.88;4.20;;;25.10;99.90;;;;;;4929206;29;20039;-80
2023/08/24 09:44:12;;;;;;;4.55;4.00;;;25.10;99.90;;;;;;4930375;29;20428;-80
2023/08/24 09:46:38;;;;;;;4.20;3.30;;;25.10;99.90;;;;;;4936967;29;20122;-82
2023/08/24 09:49:09;;;;;;;4.00;3.60;;;25.10;99.90;;;;;;4940381;29;20066;-81
2023/08/24 09:51:36;;;;;;;4.13;3.30;;;25.10;98.40;;;;;;4921703;29;20044;-81
2023/08/24 09:54:12;;;;;;;5.95;3.75;;;25.10;99.70;;;;;;4937450;29;20039;-82
2023/08/24 09:56:40;;;;;;;4.70;2.90;;;25.10;99.90;;;;;;4926609;29;20032;-82
2023/08/24 09:59:13;;;;;;;2.50;2.30;;;25.10;99.50;;;;;;4931362;29;20054;-81
2023/08/24 10:01:43;;;;;;;3.58;2.90;;;25.20;98.40;;;;;;4935183;29;20028;-80
2023/08/24 10:04:10;;;;;;;4.55;2.70;;;25.30;97.40;;;;;;4932013;29;20096;-80
2023/08/24 10:06:38;;;;;;;5.88;4.25;;;25.30;97.60;;;;;;4937509;29;20102;-80
2023/08/24 10:09:08;;;;;;;4.05;3.22;;;25.40;97.00;;;;;;4932405;29;20114;-79
2023/08/24 10:11:38;;;;;;;5.10;3.65;;;25.50;95.80;;;;;;4930493;29;20092;-81
2023/08/24 10:14:23;;;;;;;6.68;3.67;;;25.40;95.10;;;;;;4930005;29;20047;-80
2023/08/24 10:16:50;;;;;;;6.18;3.50;;;25.30;95.30;;;;;;4935004;29;20059;-82
2023/08/24 10:19:17;;;;;;;4.40;2.85;;;25.20;96.20;;;;;;4936257;29;20040;-84
2023/08/24 10:21:44;;;;;;;4.60;3.00;;;25.30;94.40;;;;;;4926850;29;20039;-86
2023/08/24 10:24:12;;;;;;;8.43;3.15;;;25.30;94.30;;;;;;4911022;29;20040;-85
2023/08/24 10:26:40;;;;;;;5.53;3.10;;;25.40;97.70;;;;;;4914082;29;20051;-84
2023/08/24 10:29:06;;;;;;;3.55;3.03;;;25.60;95.70;;;;;;4932484;29;20032;-85
2023/08/24 10:31:33;;;;;;;3.88;2.53;;;25.70;92.90;;;;;;4924279;29;20043;-84
2023/08/24 10:34:00;;;;;;;4.75;3.10;;;25.80;94.30;;;;;;4936548;29;20031;-86
2023/08/24 10:36:26;;;;;;;5.78;2.75;;;25.90;93.90;;;;;;4925184;29;20039;-82
2023/08/24 10:38:57;;;;;;;4.25;2.75;;;26.00;96.00;;;;;;4932269;29;20385;-84
2023/08/24 10:41:29;;;;;;;2.95;2.40;;;26.00;93.40;;;;;;4946324;28;20179;-85
2023/08/24 10:44:06;;;;;;;6.38;3.17;;;26.10;96.90;;;;;;4935545;29;20050;-86
2023/08/24 10:46:36;;;;;;;4.25;2.83;;;26.10;87.30;;;;;;4937848;29;20046;-87
2023/08/24 10:49:04;;;;;;;6.43;3.83;;;26.10;86.60;;;;;;4935757;29;20140;-86
2023/08/24 10:51:31;;;;;;;8.05;3.65;;;26.00;80.10;;;;;;4934041;29;20110;-85
2023/08/24 10:53:59;;;;;;;4.75;3.67;;;26.00;77.30;;;;;;4931541;29;20028;-86
2023/08/24 10:56:52;;;;;;;4.10;3.03;;;26.00;89.70;;;;;;4930223;29;20032;-84
2023/08/24 10:59:19;;;;;;;6.63;3.47;;;26.10;80.40;;;;;;4939624;29;20024;-85
2023/08/24 11:01:55;;;;;;;5.28;3.45;;;26.10;74.20;;;;;;4931541;29;20127;-85
2023/08/24 11:04:21;;;;;;;5.53;3.33;;;26.10;74.90;;;;;;4905721;29;20055;-83
2023/08/24 11:06:57;;;;;;;6.10;3.72;;;26.10;73.50;;;;;;4904884;29;20814;-84
2023/08/24 11:09:44;;;;;;;4.60;3.30;;;26.10;75.70;;;;;;4919174;29;20032;-85
2023/08/24 11:12:15;;;;;;;5.70;3.20;;;26.20;71.90;;;;;;4931993;29;20119;-85
2023/08/24 11:14:54;;;;;;;3.63;2.95;;;26.30;76.80;;;;;;4913158;29;20044;-85
2023/08/24 11:17:21;;;;;;;5.47;3.47;;;26.40;79.40;;;;;;4920190;29;20552;-84
2023/08/24 11:19:52;;;;;;;5.70;3.20;;;26.50;73.80;;;;;;4929496;29;20027;-83
2023/08/24 11:22:18;;;;;;;7.72;3.47;;;26.50;75.40;;;;;;4927057;29;20031;-84
2023/08/24 11:24:45;;;;;;;3.40;2.83;;;26.40;76.40;;;;;;4913601;29;20038;-82
2023/08/24 11:27:11;;;;;;;5.00;3.60;;;26.40;76.10;;;;;;4910229;29;20059;-84
2023/08/24 11:29:36;;;;;;;6.47;2.97;;;26.30;69.80;;;;;;4895795;29;20526;-85
2023/08/24 11:32:03;;;;;;;5.25;2.60;;;26.30;58.60;;;;;;4922355;29;20615;-85
2023/08/24 11:34:30;;;;;;;4.72;2.80;;;26.30;60.80;;;;;;4933498;29;20035;-84
2023/08/24 11:36:56;;;;;;;5.10;2.95;;;26.40;64.10;;;;;;4895050;29;20042;-83
2023/08/24 11:39:24;;;;;;;4.38;2.63;;;26.40;69.90;;;;;;4933117;29;20023;-85
2023/08/24 11:41:58;;;;;;;5.18;2.33;;;26.60;70.70;;;;;;4909837;29;20630;-83
2023/08/24 11:44:23;;;;;;;4.68;2.55;;;26.60;72.80;;;;;;4930531;29;20024;-82
2023/08/24 11:46:49;;;;;;;4.38;3.00;;;26.60;75.10;;;;;;4902468;29;20031;-84
2023/08/24 11:49:15;;;;;;;5.53;3.13;;;26.70;79.20;;;;;;4927958;29;20085;-81
2023/08/24 11:51:42;;;;;;;4.63;2.88;;;26.70;71.10;;;;;;4931754;29;20027;-85
2023/08/24 11:54:08;;;;;;;3.53;3.22;;;26.70;72.90;;;;;;4923607;29;20083;-84
2023/08/24 11:56:41;;;;;;;6.90;3.13;;;26.80;78.30;;;;;;4930001;29;20393;-84
2023/08/24 11:59:11;;;;;;;4.68;2.90;;;26.80;74.60;;;;;;4906710;29;20133;-84
2023/08/24 12:01:39;;;;;;;7.68;2.92;;;26.90;79.20;;;;;;4929290;29;20031;-85
2023/08/24 12:04:05;;;;;;;3.97;2.80;;;27.00;74.10;;;;;;4904709;29;20031;-85
2023/08/24 12:06:31;;;;;;;3.97;3.03;;;27.00;76.00;;;;;;4903190;29;20044;-84
2023/08/24 12:08:57;;;;;;;4.97;2.83;;;27.10;80.00;;;;;;4922498;29;20711;-84
2023/08/24 12:11:26;;;;;;;6.18;2.88;;;27.20;74.10;;;;;;4921446;29;20028;-84
2023/08/24 12:13:54;;;;;;;4.55;2.85;;;27.10;70.80;;;;;;4918457;29;20023;-82
2023/08/24 12:16:21;;;;;;;3.78;2.42;;;27.10;66.60;;;;;;4922899;29;20024;-84
2023/08/24 12:19:03;;;;;;;4.13;2.80;;;27.10;62.20;;;;;;4918945;29;20106;-83
2023/08/24 12:21:29;;;;;;;3.80;2.90;;;27.20;58.70;;;;;;4918716;29;20087;-85
2023/08/24 12:24:00;;;;;;;3.35;2.40;;;27.20;60.20;;;;;;4924846;29;20396;-87
2023/08/24 12:26:29;;;;;;;7.00;2.92;;;27.30;66.00;;;;;;4929159;29;20016;-85
2023/08/24 12:29:01;;;;;;;5.72;3.03;;;27.40;61.60;;;;;;4897156;29;20036;-85
2023/08/24 12:31:28;;;;;;;4.13;2.80;;;27.40;60.90;;;;;;4928578;29;20639;-85
2023/08/24 12:34:00;;;;;;;4.40;3.00;;;27.50;63.30;;;;;;4920205;29;20073;-85
2023/08/24 12:36:26;;;;;;;5.00;3.30;;;27.40;60.10;;;;;;4898252;29;20156;-84
2023/08/24 12:38:52;;;;;;;8.65;3.28;;;27.50;58.00;;;;;;4928485;29;20028;-84
2023/08/24 12:41:18;;;;;;;7.13;3.50;;;27.30;58.90;;;;;;4920923;29;20031;-86
2023/08/24 12:43:44;;;;;;;4.75;2.92;;;27.40;59.30;;;;;;4911191;29;20443;-83
2023/08/24 12:46:10;;;;;;;4.63;2.85;;;27.40;59.90;;;;;;4919481;29;20036;-82
2023/08/24 12:48:35;;;;;;;4.68;3.17;;;27.40;58.10;;;;;;4916524;29;20028;-84
2023/08/24 12:51:01;;;;;;;7.28;3.15;;;27.40;58.60;;;;;;4917687;29;20031;-86